createdAt,value
2022-09-23T00:00:20.675Z,101135.80
2022-09-23T00:01:37.111Z,101139.03
2022-09-23T00:02:53.537Z,101140.36
2022-09-23T00:04:09.895Z,101137.91
2022-09-23T00:05:28.045Z,101134.45
2022-09-23T00:06:45.875Z,101135.46
2022-09-23T00:08:03.716Z,101134.70
2022-09-23T00:09:21.526Z,101134.30
2022-09-23T00:10:37.946Z,101137.23
2022-09-23T00:11:54.615Z,101134.38
2022-09-23T00:13:10.976Z,101135.41
2022-09-23T00:14:28.819Z,101136.04
2022-09-23T00:15:46.714Z,101134.22
2022-09-23T00:17:04.580Z,101133.03
2022-09-23T00:18:21.199Z,101132.56
2022-09-23T00:19:39.041Z,101132.97
2022-09-23T00:20:56.881Z,101132.03
2022-09-23T00:22:14.807Z,101126.05
2022-09-23T00:23:32.670Z,101125.17
2022-09-23T00:24:49.328Z,101122.59
2022-09-23T00:26:07.144Z,101122.97
2022-09-23T00:27:25.053Z,101124.02
2022-09-23T00:28:41.462Z,101120.69
2022-09-23T00:29:59.316Z,101118.80
2022-09-23T00:31:16.006Z,101119.42
2022-09-23T00:32:33.862Z,101118.95
2022-09-23T00:33:51.722Z,101119.12
2022-09-23T00:35:09.551Z,101118.64
2022-09-23T00:36:25.933Z,101119.59
2022-09-23T00:37:42.592Z,101116.98
2022-09-23T00:38:59.071Z,101115.28
2022-09-23T00:40:15.493Z,101113.31
2022-09-23T00:41:33.286Z,101116.20
2022-09-23T00:42:49.702Z,101118.42
2022-09-23T00:44:07.785Z,101114.72
2022-09-23T00:45:24.253Z,101117.27
2022-09-23T00:46:40.631Z,101116.38
2022-09-23T00:47:58.468Z,101114.65
2022-09-23T00:49:14.846Z,101116.94
2022-09-23T00:50:33.004Z,101115.38
2022-09-23T00:51:49.377Z,101111.34
2022-09-23T00:53:07.217Z,101109.12
2022-09-23T00:54:25.036Z,101111.03
2022-09-23T00:55:42.966Z,101110.25
2022-09-23T00:56:59.647Z,101107.50
2022-09-23T00:58:16.030Z,101104.74
2022-09-23T00:59:33.847Z,101101.50
2022-09-23T01:00:50.444Z,101106.31
2022-09-23T01:02:08.305Z,101107.19
2022-09-23T01:03:24.997Z,101101.66
2022-09-23T01:04:42.802Z,101100.48
2022-09-23T01:06:00.679Z,101100.55
2022-09-23T01:07:17.057Z,101097.81
2022-09-23T01:08:34.887Z,101101.05
2022-09-23T01:09:51.542Z,101099.23
2022-09-23T01:11:09.411Z,101092.46
2022-09-23T01:12:27.210Z,101091.92
2022-09-23T01:13:45.041Z,101091.83
2022-09-23T01:15:02.855Z,101087.83
2022-09-23T01:16:21.006Z,101085.79
2022-09-23T01:17:37.419Z,101082.45
2022-09-23T01:18:55.252Z,101082.77
2022-09-23T01:20:11.602Z,101079.81
2022-09-23T01:21:28.012Z,101079.17
2022-09-23T01:22:46.113Z,101077.41
2022-09-23T01:24:02.614Z,101081.53
2022-09-23T01:25:20.428Z,101077.84
2022-09-23T01:26:37.794Z,101078.76
2022-09-23T01:27:55.605Z,101077.12
2022-09-23T01:29:12.274Z,101076.49
2022-09-23T01:30:28.717Z,101074.77
2022-09-23T01:31:46.544Z,101074.30
2022-09-23T01:33:02.905Z,101071.15
2022-09-23T01:34:19.277Z,101076.62
2022-09-23T01:35:36.057Z,101076.80
2022-09-23T01:36:52.429Z,101076.19
2022-09-23T01:38:10.246Z,101071.47
2022-09-23T01:39:28.099Z,101072.48
2022-09-23T01:40:45.976Z,101072.89
2022-09-23T01:42:02.637Z,101067.29
2022-09-23T01:43:20.457Z,101068.45
2022-09-23T01:44:38.288Z,101069.25
2022-09-23T01:45:56.138Z,101064.84
2022-09-23T01:47:13.976Z,101067.06
2022-09-23T01:48:30.633Z,101068.70
2022-09-23T01:49:47.030Z,101070.05
2022-09-23T01:51:03.391Z,101064.14
2022-09-23T01:52:19.783Z,101067.76
2022-09-23T01:53:36.147Z,101065.96
2022-09-23T01:54:54.292Z,101058.79
2022-09-23T01:56:12.106Z,101065.55
2022-09-23T01:57:29.932Z,101065.34
2022-09-23T01:58:46.304Z,101064.30
2022-09-23T02:00:04.183Z,101063.73
2022-09-23T02:01:20.924Z,101062.98
2022-09-23T02:02:38.809Z,101063.30
2022-09-23T02:03:55.155Z,101063.20
2022-09-23T02:05:13.002Z,101064.14
2022-09-23T02:06:29.373Z,101064.30
2022-09-23T02:07:47.546Z,101065.47
2022-09-23T02:09:03.903Z,101060.62
2022-09-23T02:10:20.326Z,101062.20
2022-09-23T02:11:36.682Z,101065.19
2022-09-23T02:12:54.542Z,101057.32
2022-09-23T02:14:11.174Z,101063.14
2022-09-23T02:15:27.584Z,101064.24
2022-09-23T02:16:45.453Z,101059.99
2022-09-23T02:18:03.294Z,101060.27
2022-09-23T02:19:19.635Z,101056.75
2022-09-23T02:20:37.838Z,101054.39
2022-09-23T02:21:55.651Z,101052.56
2022-09-23T02:23:13.473Z,101050.30
2022-09-23T02:24:31.286Z,101051.23
2022-09-23T02:25:49.157Z,101047.94
2022-09-23T02:27:05.793Z,101053.34
2022-09-23T02:28:22.186Z,101050.86
2022-09-23T02:29:40.037Z,101050.23
2022-09-23T02:30:56.436Z,101045.16
2022-09-23T02:32:14.363Z,101045.88
2022-09-23T02:33:31.029Z,101043.93
2022-09-23T02:34:48.857Z,101041.32
2022-09-23T02:36:07.018Z,101040.31
2022-09-23T02:37:27.302Z,101042.34
2022-09-23T02:38:43.674Z,101046.38
2022-09-23T02:40:00.318Z,101043.55
2022-09-23T02:41:18.180Z,101045.27
2022-09-23T02:42:34.542Z,101045.02
2022-09-23T02:43:50.926Z,101043.86
2022-09-23T02:45:07.281Z,101043.52
2022-09-23T02:46:24.056Z,101042.42
2022-09-23T02:47:40.432Z,101036.38
2022-09-23T02:48:56.894Z,101035.51
2022-09-23T02:50:13.243Z,101036.52
2022-09-23T02:51:31.080Z,101039.38
2022-09-23T02:52:47.714Z,101036.22
2022-09-23T02:54:04.124Z,101036.83
2022-09-23T02:55:20.494Z,101032.90
2022-09-23T02:56:38.324Z,101028.52
2022-09-23T02:57:56.145Z,101028.97
2022-09-23T02:59:12.569Z,101027.33
2022-09-23T03:00:30.374Z,101030.88
2022-09-23T03:01:46.755Z,101029.28
2022-09-23T03:03:03.138Z,101022.45
2022-09-23T03:04:19.836Z,101030.33
2022-09-23T03:05:36.199Z,101024.88
2022-09-23T03:06:52.589Z,101022.61
2022-09-23T03:08:10.410Z,101019.09
2022-09-23T03:09:28.334Z,101014.53
2022-09-23T03:10:48.698Z,101013.64
2022-09-23T03:12:05.080Z,101016.39
2022-09-23T03:13:22.198Z,101016.23
2022-09-23T03:14:40.568Z,101013.33
2022-09-23T03:15:56.938Z,101014.05
2022-09-23T03:17:13.598Z,101007.52
2022-09-23T03:18:29.970Z,101009.08
2022-09-23T03:19:46.392Z,101006.32
2022-09-23T03:21:02.773Z,101001.30
2022-09-23T03:22:19.140Z,101002.64
2022-09-23T03:23:35.779Z,101002.07
2022-09-23T03:24:54.169Z,100998.48
2022-09-23T03:26:10.624Z,100999.09
2022-09-23T03:27:27.003Z,100999.55
2022-09-23T03:28:47.226Z,100999.09
2022-09-23T03:30:05.304Z,100998.48
2022-09-23T03:31:21.718Z,100988.23
2022-09-23T03:32:39.581Z,100991.40
2022-09-23T03:33:57.420Z,100995.33
2022-09-23T03:35:15.539Z,100990.98
2022-09-23T03:36:31.898Z,100990.84
2022-09-23T03:37:49.765Z,100989.11
2022-09-23T03:39:06.174Z,100987.05
2022-09-23T03:40:22.663Z,100985.59
2022-09-23T03:41:39.281Z,100986.47
2022-09-23T03:42:55.705Z,100988.20
2022-09-23T03:44:12.097Z,100991.43
2022-09-23T03:45:29.942Z,100989.16
2022-09-23T03:46:46.306Z,100992.27
2022-09-23T03:48:04.474Z,100985.69
2022-09-23T03:49:22.260Z,100988.27
2022-09-23T03:50:40.097Z,100986.37
2022-09-23T03:51:56.457Z,100983.00
2022-09-23T03:53:14.317Z,100983.94
2022-09-23T03:54:30.945Z,100985.03
2022-09-23T03:55:47.329Z,100985.18
2022-09-23T03:57:03.747Z,100986.51
2022-09-23T03:58:21.577Z,100985.88
2022-09-23T03:59:37.983Z,100982.51
2022-09-23T04:00:56.131Z,100976.84
2022-09-23T04:02:13.711Z,100981.96
2022-09-23T04:03:31.659Z,100978.02
2022-09-23T04:04:48.045Z,100973.53
2022-09-23T04:06:05.892Z,100973.30
2022-09-23T04:07:22.280Z,100972.98
2022-09-23T04:08:38.662Z,100969.53
2022-09-23T04:09:56.014Z,100971.16
2022-09-23T04:11:12.404Z,100972.58
2022-09-23T04:12:28.775Z,100966.91
2022-09-23T04:13:46.897Z,100973.30
2022-09-23T04:15:04.808Z,100970.30
2022-09-23T04:16:21.221Z,100970.62
2022-09-23T04:17:37.614Z,100973.83
2022-09-23T04:18:55.459Z,100968.58
2022-09-23T04:20:12.143Z,100970.39
2022-09-23T04:21:29.974Z,100969.60
2022-09-23T04:22:48.316Z,100970.40
2022-09-23T04:24:06.169Z,100969.94
2022-09-23T04:25:24.008Z,100968.38
2022-09-23T04:26:40.689Z,100964.36
2022-09-23T04:27:57.096Z,100970.34
2022-09-23T04:29:14.938Z,100968.31
2022-09-23T04:30:32.342Z,100971.06
2022-09-23T04:31:50.220Z,100968.47
2022-09-23T04:33:08.303Z,100963.20
2022-09-23T04:34:26.158Z,100963.94
2022-09-23T04:35:44.011Z,100973.30
2022-09-23T04:37:01.852Z,100970.31
2022-09-23T04:38:19.682Z,100973.23
2022-09-23T04:39:37.811Z,100971.73
2022-09-23T04:40:55.667Z,100968.86
2022-09-23T04:42:13.572Z,100969.69
2022-09-23T04:43:31.435Z,100969.62
2022-09-23T04:44:49.274Z,100971.99
2022-09-23T04:46:07.403Z,100965.62
2022-09-23T04:47:25.223Z,100966.19
2022-09-23T04:48:43.068Z,100964.91
2022-09-23T04:50:00.914Z,100966.42
2022-09-23T04:51:18.855Z,100964.47
2022-09-23T04:52:35.537Z,100962.34
2022-09-23T04:53:53.373Z,100964.86
2022-09-23T04:55:11.497Z,100956.58
2022-09-23T04:56:29.348Z,100957.39
2022-09-23T04:57:47.165Z,100955.42
2022-09-23T04:59:05.337Z,100954.63
2022-09-23T05:00:24.027Z,100951.48
2022-09-23T05:01:42.873Z,100954.61
2022-09-23T05:03:00.728Z,100956.52
2022-09-23T05:04:18.100Z,100949.28
2022-09-23T05:05:34.798Z,100950.44
2022-09-23T05:06:52.647Z,100947.70
2022-09-23T05:08:13.049Z,100940.23
2022-09-23T05:09:30.939Z,100938.94
2022-09-23T05:10:48.804Z,100938.02
2022-09-23T05:12:07.118Z,100937.03
2022-09-23T05:13:24.940Z,100930.29
2022-09-23T05:14:42.780Z,100932.17
2022-09-23T05:16:00.683Z,100937.56
2022-09-23T05:17:18.840Z,100930.98
2022-09-23T05:18:37.174Z,100931.38
2022-09-23T05:19:55.173Z,100939.55
2022-09-23T05:21:13.542Z,100936.94
2022-09-23T05:22:31.408Z,100934.56
2022-09-23T05:23:50.077Z,100936.44
2022-09-23T05:25:07.952Z,100931.55
2022-09-23T05:26:26.364Z,100934.09
2022-09-23T05:27:44.364Z,100928.70
2022-09-23T05:29:04.889Z,100929.65
2022-09-23T05:30:24.708Z,100932.25
2022-09-23T05:31:42.600Z,100930.86
2022-09-23T05:32:59.962Z,100934.15
2022-09-23T05:34:17.795Z,100934.14
2022-09-23T05:35:35.635Z,100933.09
2022-09-23T05:36:53.485Z,100933.33
2022-09-23T05:38:11.427Z,100925.99
2022-09-23T05:39:29.788Z,100929.45
2022-09-23T05:40:48.981Z,100934.56
2022-09-23T05:42:07.376Z,100932.81
2022-09-23T05:43:26.294Z,100938.88
2022-09-23T05:44:44.622Z,100940.06
2022-09-23T05:46:07.201Z,100947.61
2022-09-23T05:47:25.808Z,100940.04
2022-09-23T05:48:43.718Z,100944.21
2022-09-23T05:50:02.158Z,100947.02
2022-09-23T05:51:19.666Z,100945.29
2022-09-23T05:52:38.835Z,100944.49
2022-09-23T05:53:56.714Z,100948.45
2022-09-23T05:55:15.580Z,100952.44
2022-09-23T05:56:32.953Z,100953.52
2022-09-23T05:57:51.051Z,100951.95
2022-09-23T05:59:09.553Z,100955.31
2022-09-23T06:00:27.063Z,100953.28
2022-09-23T06:01:44.977Z,100956.19
2022-09-23T06:03:02.420Z,100953.55
2022-09-23T06:04:20.533Z,100957.56
2022-09-23T06:05:38.060Z,100955.59
2022-09-23T06:06:55.958Z,100954.95
2022-09-23T06:08:13.274Z,100954.36
2022-09-23T06:09:36.232Z,100953.07
2022-09-23T06:10:54.667Z,100952.83
2022-09-23T06:12:12.130Z,100950.67
2022-09-23T06:13:32.685Z,100954.92
2022-09-23T06:14:50.637Z,100949.22
2022-09-23T06:16:08.695Z,100948.50
2022-09-23T06:17:27.736Z,100950.03
2022-09-23T06:18:45.595Z,100949.14
2022-09-23T06:20:04.850Z,100949.36
2022-09-23T06:21:23.249Z,100950.59
2022-09-23T06:22:41.164Z,100943.65
2022-09-23T06:23:59.531Z,100948.72
2022-09-23T06:25:30.163Z,100949.66
2022-09-23T06:26:50.391Z,100945.52
2022-09-23T06:28:10.759Z,100947.05
2022-09-23T06:29:33.828Z,100947.16
2022-09-23T06:30:59.653Z,100946.19
2022-09-23T06:32:23.922Z,100942.67
2022-09-23T06:35:45.632Z,100944.30
2022-09-23T06:37:17.246Z,100938.58
2022-09-23T06:38:30.955Z,100942.22
2022-09-23T06:39:54.605Z,100941.53
2022-09-23T06:41:15.980Z,100937.20
2022-09-23T06:42:36.790Z,100943.45
2022-09-23T06:43:56.169Z,100936.08
2022-09-23T06:45:15.558Z,100937.47
2022-09-23T06:46:36.859Z,100937.86
2022-09-23T06:49:54.129Z,100941.98
2022-09-23T06:51:24.508Z,100946.88
2022-09-23T06:52:54.369Z,100945.50
2022-09-23T06:54:13.748Z,100941.65
2022-09-23T06:55:40.738Z,100943.66
2022-09-23T06:57:08.368Z,100948.30
2022-09-23T06:58:29.160Z,100948.02
2022-09-23T06:59:49.408Z,100947.80
2022-09-23T07:01:09.445Z,100949.17
2022-09-23T07:02:30.121Z,100947.00
2022-09-23T07:03:52.106Z,100950.89
2022-09-23T07:05:11.779Z,100945.23
2022-09-23T07:06:30.673Z,100944.20
2022-09-23T07:07:53.062Z,100945.94
2022-09-23T07:09:15.665Z,100946.12
2022-09-23T07:10:34.984Z,100941.47
2022-09-23T07:11:57.592Z,100944.95
2022-09-23T07:13:18.156Z,100944.41
2022-09-23T07:14:38.353Z,100944.59
2022-09-23T07:16:01.577Z,100945.27
2022-09-23T07:17:25.056Z,100943.69
2022-09-23T07:18:46.827Z,100946.62
2022-09-23T07:20:07.741Z,100943.95
2022-09-23T07:21:28.050Z,100946.47
2022-09-23T07:22:56.097Z,100940.17
2022-09-23T07:24:18.543Z,100946.30
2022-09-23T07:25:39.489Z,100944.77
2022-09-23T07:27:02.797Z,100945.52
2022-09-23T07:28:23.665Z,100949.31
2022-09-23T07:29:48.606Z,100949.60
2022-09-23T07:31:11.187Z,100947.39
2022-09-23T07:32:40.899Z,100950.44
2022-09-23T07:33:54.572Z,100942.69
2022-09-23T07:35:14.514Z,100946.22
2022-09-23T07:36:33.067Z,100947.48
2022-09-23T07:37:52.501Z,100946.64
2022-09-23T07:39:11.858Z,100951.69
2022-09-23T07:40:35.661Z,100949.84
2022-09-23T07:41:56.384Z,100950.30
2022-09-23T07:43:19.504Z,100950.46
2022-09-23T07:44:39.875Z,100947.28
2022-09-23T07:46:02.726Z,100948.64
2022-09-23T07:47:25.049Z,100949.04
2022-09-23T07:48:49.358Z,100947.44
2022-09-23T07:50:09.283Z,100944.69
2022-09-23T07:51:33.241Z,100948.57
2022-09-23T07:52:53.137Z,100946.38
2022-09-23T07:54:18.955Z,100947.56
2022-09-23T07:55:37.367Z,100943.72
2022-09-23T07:57:01.949Z,100947.61
2022-09-23T07:58:22.928Z,100939.03
2022-09-23T07:59:42.817Z,100939.70
2022-09-23T08:01:01.949Z,100941.70
2022-09-23T08:02:21.878Z,100936.34
2022-09-23T08:03:44.283Z,100939.47
2022-09-23T08:05:06.585Z,100942.23
2022-09-23T08:06:33.072Z,100938.25
2022-09-23T08:07:54.364Z,100938.20
2022-09-23T08:09:13.792Z,100935.53
2022-09-23T08:10:33.992Z,100942.48
2022-09-23T08:11:58.734Z,100941.95
2022-09-23T08:14:49.241Z,100942.81
2022-09-23T08:16:08.553Z,100944.34
2022-09-23T08:17:35.619Z,100940.52
2022-09-23T08:20:28.707Z,100937.15
2022-09-23T08:21:47.737Z,100936.04
2022-09-23T08:23:07.469Z,100930.96
2022-09-23T08:24:29.774Z,100936.22
2022-09-23T08:25:50.266Z,100938.31
2022-09-23T08:29:10.705Z,100934.96
2022-09-23T08:30:29.660Z,100937.09
2022-09-23T08:31:49.751Z,100933.58
2022-09-23T08:35:03.584Z,100932.30
2022-09-23T08:36:24.544Z,100930.88
2022-09-23T08:39:36.900Z,100928.86
2022-09-23T08:42:48.827Z,100932.20
2022-09-23T08:44:11.606Z,100926.12
2022-09-23T08:45:37.896Z,100927.91
2022-09-23T08:47:02.450Z,100929.41
2022-09-23T08:48:23.351Z,100926.62
2022-09-23T08:49:44.596Z,100926.49
2022-09-23T08:51:08.993Z,100928.38
2022-09-23T08:52:28.907Z,100928.09
2022-09-23T08:53:49.134Z,100928.31
2022-09-23T08:55:09.323Z,100920.32
2022-09-23T08:56:29.784Z,100924.31
2022-09-23T08:58:02.194Z,100921.80
2022-09-23T08:59:15.972Z,100922.68
2022-09-23T09:04:28.804Z,100920.16
2022-09-23T09:05:58.204Z,100923.86
2022-09-23T09:09:05.902Z,100917.62
2022-09-23T09:10:27.054Z,100921.47
2022-09-23T09:11:48.566Z,100919.02
2022-09-23T09:13:08.206Z,100919.34
2022-09-23T09:14:32.595Z,100918.19
2022-09-23T09:16:07.335Z,100913.14
2022-09-23T09:17:25.636Z,100915.41
2022-09-23T09:18:45.507Z,100916.22
2022-09-23T09:20:09.367Z,100917.48
2022-09-23T09:21:30.295Z,100919.05
2022-09-23T09:22:49.712Z,100918.09
2022-09-23T09:24:10.441Z,100915.20
2022-09-23T09:25:34.065Z,100911.34
2022-09-23T09:26:54.410Z,100910.98
2022-09-23T09:28:20.828Z,100913.59
2022-09-23T09:29:46.359Z,100913.84
2022-09-23T09:31:07.384Z,100908.40
2022-09-23T09:32:30.883Z,100913.09
2022-09-23T09:33:55.505Z,100912.36
2022-09-23T09:35:18.062Z,100917.70
2022-09-23T09:36:37.942Z,100915.45
2022-09-23T09:37:57.795Z,100912.81
2022-09-23T09:39:17.671Z,100911.05
2022-09-23T09:40:37.387Z,100911.16
2022-09-23T09:43:47.645Z,100907.00
2022-09-23T09:47:08.452Z,100904.77
2022-09-23T09:48:27.794Z,100902.45
2022-09-23T09:49:47.670Z,100905.59
2022-09-23T09:53:06.762Z,100904.78
2022-09-23T09:54:26.846Z,100904.53
2022-09-23T09:55:46.314Z,100903.20
2022-09-23T10:02:42.825Z,100902.06
2022-09-23T10:04:14.895Z,100900.66
2022-09-23T10:05:36.795Z,100898.33
2022-09-23T10:06:57.499Z,100895.05
2022-09-23T10:08:15.308Z,100894.57
2022-09-23T10:09:36.621Z,100894.41
2022-09-23T10:11:08.516Z,100891.39
2022-09-23T10:12:27.178Z,100890.52
2022-09-23T10:13:45.587Z,100889.54
2022-09-23T10:15:09.353Z,100890.18
2022-09-23T10:16:30.007Z,100891.88
2022-09-23T10:17:52.821Z,100890.13
2022-09-23T10:19:12.502Z,100892.05
2022-09-23T10:20:40.029Z,100888.63
2022-09-23T10:22:06.293Z,100891.42
2022-09-23T10:23:26.625Z,100887.75
2022-09-23T10:24:47.313Z,100884.48
2022-09-23T10:26:09.564Z,100888.09
2022-09-23T10:27:32.386Z,100890.41
2022-09-23T10:28:51.532Z,100883.77
2022-09-23T10:33:52.024Z,100887.24
2022-09-23T10:35:14.596Z,100885.37
2022-09-23T10:36:35.900Z,100882.48
2022-09-23T10:37:55.800Z,100885.84
2022-09-23T10:39:15.900Z,100887.13
2022-09-23T10:40:35.159Z,100886.27
2022-09-23T10:43:48.437Z,100883.45
2022-09-23T10:45:11.720Z,100880.34
2022-09-23T10:46:32.529Z,100881.25
2022-09-23T10:47:53.802Z,100877.95
2022-09-23T10:49:13.200Z,100873.61
2022-09-23T10:50:33.890Z,100872.36
2022-09-23T10:51:54.731Z,100870.66
2022-09-23T10:53:21.362Z,100869.92
2022-09-23T10:56:33.482Z,100869.20
2022-09-23T10:57:58.406Z,100868.29
2022-09-23T10:59:17.417Z,100869.48
2022-09-23T11:00:36.839Z,100867.65
2022-09-23T11:01:56.293Z,100865.62
2022-09-23T11:03:17.965Z,100859.73
2022-09-23T11:04:43.196Z,100857.80
2022-09-23T11:06:11.945Z,100861.62
2022-09-23T11:07:31.832Z,100858.15
2022-09-23T11:08:53.666Z,100860.61
2022-09-23T11:10:23.188Z,100858.88
2022-09-23T11:11:39.647Z,100860.70
2022-09-23T11:12:59.537Z,100858.12
2022-09-23T11:14:19.679Z,100855.06
2022-09-23T11:15:40.039Z,100855.08
2022-09-23T11:16:58.039Z,100853.77
2022-09-23T11:18:20.592Z,100849.33
2022-09-23T11:19:45.573Z,100844.62
2022-09-23T11:21:07.573Z,100845.83
2022-09-23T11:22:30.160Z,100846.08
2022-09-23T11:23:54.598Z,100844.94
2022-09-23T11:25:21.045Z,100845.31
2022-09-23T11:26:43.700Z,100838.08
2022-09-23T11:28:07.716Z,100837.65
2022-09-23T11:29:29.454Z,100837.67
2022-09-23T11:30:48.008Z,100838.14
2022-09-23T11:32:06.924Z,100842.96
2022-09-23T11:33:28.360Z,100836.42
2022-09-23T11:34:52.530Z,100830.52
2022-09-23T11:36:10.235Z,100829.70
2022-09-23T11:37:31.917Z,100824.89
2022-09-23T11:38:50.289Z,100823.56
2022-09-23T11:40:10.071Z,100819.34
2022-09-23T11:41:29.661Z,100821.42
2022-09-23T11:42:51.280Z,100817.55
2022-09-23T11:44:10.579Z,100816.83
2022-09-23T11:45:30.011Z,100819.95
2022-09-23T11:48:44.372Z,100814.80
2022-09-23T11:50:04.788Z,100818.48
2022-09-23T11:51:24.710Z,100815.24
2022-09-23T11:52:43.059Z,100812.98
2022-09-23T11:54:01.455Z,100816.88
2022-09-23T11:55:22.984Z,100809.61
2022-09-23T11:56:46.731Z,100813.91
2022-09-23T11:58:10.795Z,100811.42
2022-09-23T11:59:40.084Z,100814.55
2022-09-23T12:01:01.100Z,100812.27
2022-09-23T12:02:26.916Z,100809.97
2022-09-23T12:03:45.808Z,100806.81
2022-09-23T12:05:04.873Z,100803.09
2022-09-23T12:06:23.750Z,100809.20
2022-09-23T12:07:42.730Z,100803.71
2022-09-23T12:09:02.110Z,100808.27
2022-09-23T12:10:20.485Z,100804.12
2022-09-23T12:11:42.386Z,100800.72
2022-09-23T12:13:03.721Z,100802.39
2022-09-23T12:14:22.044Z,100799.05
2022-09-23T12:15:42.806Z,100797.97
2022-09-23T12:17:02.768Z,100798.20
2022-09-23T12:18:24.687Z,100796.03
2022-09-23T12:19:44.548Z,100795.09
2022-09-23T12:21:06.835Z,100788.14
2022-09-23T12:22:26.341Z,100788.52
2022-09-23T12:23:51.646Z,100790.23
2022-09-23T12:25:09.490Z,100790.93
2022-09-23T12:26:30.760Z,100785.00
2022-09-23T12:27:51.840Z,100787.41
2022-09-23T12:29:13.086Z,100784.44
2022-09-23T12:32:23.584Z,100778.72
2022-09-23T12:33:42.954Z,100781.56
2022-09-23T12:35:02.335Z,100780.58
2022-09-23T12:36:20.165Z,100781.82
2022-09-23T12:37:39.826Z,100782.16
2022-09-23T12:39:02.837Z,100777.15
2022-09-23T12:40:25.116Z,100775.84
2022-09-23T12:41:48.790Z,100776.13
2022-09-23T12:43:07.300Z,100773.94
2022-09-23T12:44:25.650Z,100775.27
2022-09-23T12:45:45.849Z,100770.59
2022-09-23T12:47:04.703Z,100764.12
2022-09-23T12:48:24.562Z,100764.52
2022-09-23T12:49:43.405Z,100763.42
2022-09-23T12:51:01.295Z,100765.64
2022-09-23T12:52:19.895Z,100764.31
2022-09-23T12:53:37.756Z,100762.52
2022-09-23T12:54:57.678Z,100762.20
2022-09-23T12:56:15.519Z,100761.05
2022-09-23T12:57:34.889Z,100758.02
2022-09-23T12:58:53.760Z,100759.80
2022-09-23T13:00:12.649Z,100759.42
2022-09-23T13:01:31.736Z,100754.19
2022-09-23T13:02:50.282Z,100758.47
2022-09-23T13:04:08.325Z,100752.42
2022-09-23T13:05:26.197Z,100747.74
2022-09-23T13:06:45.015Z,100747.78
2022-09-23T13:08:04.393Z,100748.97
2022-09-23T13:09:22.545Z,100744.78
2022-09-23T13:10:40.885Z,100742.52
2022-09-23T13:11:59.296Z,100745.45
2022-09-23T13:13:18.116Z,100742.28
2022-09-23T13:14:36.018Z,100743.42
2022-09-23T13:15:53.378Z,100741.95
2022-09-23T13:17:11.248Z,100744.61
2022-09-23T13:18:36.150Z,100742.67
2022-09-23T13:19:55.800Z,100741.80
2022-09-23T13:21:15.741Z,100737.72
2022-09-23T13:22:35.042Z,100735.48
2022-09-23T13:23:53.452Z,100729.97
2022-09-23T13:25:13.410Z,100735.83
2022-09-23T13:26:35.144Z,100729.34
2022-09-23T13:27:56.463Z,100728.86
2022-09-23T13:29:14.625Z,100728.98
2022-09-23T13:32:23.985Z,100715.81
2022-09-23T13:33:41.898Z,100722.18
2022-09-23T13:35:02.382Z,100717.81
2022-09-23T13:36:19.736Z,100716.67
2022-09-23T13:37:40.587Z,100720.18
2022-09-23T13:38:59.011Z,100719.66
2022-09-23T13:40:16.956Z,100721.55
2022-09-23T13:41:34.575Z,100720.72
2022-09-23T13:42:51.059Z,100715.92
2022-09-23T13:44:08.921Z,100719.06
2022-09-23T13:45:26.903Z,100719.08
2022-09-23T13:46:44.469Z,100719.20
2022-09-23T13:48:02.348Z,100716.09
2022-09-23T13:49:21.454Z,100714.44
2022-09-23T13:50:39.297Z,100716.80
2022-09-23T13:51:57.202Z,100715.69
2022-09-23T13:53:15.053Z,100717.52
2022-09-23T13:54:32.918Z,100714.16
2022-09-23T13:55:52.583Z,100715.83
2022-09-23T13:57:10.157Z,100715.73
2022-09-23T13:58:26.569Z,100714.93
2022-09-23T13:59:44.421Z,100712.33
2022-09-23T14:01:02.742Z,100712.64
2022-09-23T14:02:21.117Z,100706.60
2022-09-23T14:03:39.056Z,100712.89
2022-09-23T14:04:56.922Z,100714.00
2022-09-23T14:06:13.577Z,100711.75
2022-09-23T14:07:31.711Z,100710.67
2022-09-23T14:08:49.573Z,100709.12
2022-09-23T14:10:07.434Z,100702.20
2022-09-23T14:11:25.397Z,100702.33
2022-09-23T14:12:45.867Z,100707.90
2022-09-23T14:14:04.137Z,100702.95
2022-09-23T14:15:22.009Z,100704.28
2022-09-23T14:16:39.947Z,100700.09
2022-09-23T14:17:58.588Z,100700.08
2022-09-23T14:19:16.762Z,100696.92
2022-09-23T14:20:34.089Z,100696.65
2022-09-23T14:21:52.014Z,100700.04
2022-09-23T14:23:10.020Z,100696.78
2022-09-23T14:24:27.932Z,100696.80
2022-09-23T14:25:46.074Z,100693.06
2022-09-23T14:27:02.555Z,100696.52
2022-09-23T14:28:20.542Z,100695.38
2022-09-23T14:29:38.327Z,100702.83
2022-09-23T14:30:56.176Z,100700.05
2022-09-23T14:32:13.796Z,100700.77
2022-09-23T14:33:31.687Z,100702.33
2022-09-23T14:34:53.435Z,100699.00
2022-09-23T14:36:11.298Z,100697.48
2022-09-23T14:37:29.189Z,100702.64
2022-09-23T14:38:45.923Z,100698.25
2022-09-23T14:40:03.775Z,100701.91
2022-09-23T14:41:22.243Z,100695.12
2022-09-23T14:42:42.166Z,100694.39
2022-09-23T14:43:59.505Z,100702.00
2022-09-23T14:45:17.364Z,100696.92
2022-09-23T14:46:35.204Z,100699.36
2022-09-23T14:47:53.182Z,100694.58
2022-09-23T14:49:11.008Z,100695.50
2022-09-23T14:50:28.826Z,100695.12
2022-09-23T14:51:47.006Z,100692.89
2022-09-23T14:53:04.429Z,100688.20
2022-09-23T14:54:21.862Z,100693.55
2022-09-23T14:55:39.739Z,100693.72
2022-09-23T14:56:57.629Z,100690.86
2022-09-23T14:58:15.797Z,100692.30
2022-09-23T14:59:33.646Z,100688.81
2022-09-23T15:00:50.109Z,100691.20
2022-09-23T15:02:08.010Z,100693.45
2022-09-23T15:03:25.889Z,100686.98
2022-09-23T15:04:43.720Z,100684.82
2022-09-23T15:06:04.107Z,100682.03
2022-09-23T15:07:24.255Z,100682.29
2022-09-23T15:08:42.645Z,100685.65
2022-09-23T15:10:01.336Z,100689.50
2022-09-23T15:11:19.156Z,100684.41
2022-09-23T15:12:35.623Z,100683.10
2022-09-23T15:13:53.525Z,100683.91
2022-09-23T15:15:10.848Z,100681.80
2022-09-23T15:16:29.093Z,100678.23
2022-09-23T15:17:46.967Z,100677.81
2022-09-23T15:19:04.870Z,100678.62
2022-09-23T15:20:21.332Z,100677.04
2022-09-23T15:21:39.240Z,100675.84
2022-09-23T15:22:56.861Z,100673.70
2022-09-23T15:24:14.765Z,100678.72
2022-09-23T15:25:32.602Z,100678.01
2022-09-23T15:26:50.664Z,100678.00
2022-09-23T15:28:08.492Z,100672.75
2022-09-23T15:29:26.680Z,100674.41
2022-09-23T15:30:45.047Z,100675.38
2022-09-23T15:32:02.605Z,100678.80
2022-09-23T15:33:20.687Z,100680.78
2022-09-23T15:34:38.517Z,100681.52
2022-09-23T15:35:57.141Z,100681.28
2022-09-23T15:37:15.219Z,100681.66
2022-09-23T15:38:33.077Z,100680.72
2022-09-23T15:39:50.891Z,100681.22
2022-09-23T15:41:08.792Z,100681.25
2022-09-23T15:42:26.943Z,100682.77
2022-09-23T15:43:44.805Z,100679.55
2022-09-23T15:45:02.716Z,100686.67
2022-09-23T15:46:20.603Z,100683.55
2022-09-23T15:47:38.469Z,100689.54